Trinidad, California
Current Conditions -  °F | °C
As of 10:53 AM on Thursday 30 Oct 2014 (Local Time) from KACV Reporting Station
Overcast Overcast  
Wind Chill: 62°   Ceiling: 900
Heat Index: 62°   Visibility: 10mi
Dew Point: 59°   Wind: 7mph
Humidity: 90%   Direction: 250°WSW
Pressure: 29.92"   Gusts: NA
Location:  41.06°N, 124.14°W
Report Text: KACV 301753Z AUTO 25006KT 10SM BKN009 OVC013 17/15 A2992 RMK AO2 CIG 006V012 SLP135 T01670150 10178 20144 55001
Loading
Personal Weather Stations






























Interactive Weather Map
Tropical Storm Tracking
New forecast layout! Learn more

10-Day Weather Forecast

Advertisements
Track Severe Weather on mobile